createdAt,value
2023-03-26T23:12:05.712Z,78.77
2023-03-26T23:13:06.094Z,78.66
2023-03-26T23:14:05.813Z,78.97
2023-03-26T23:15:05.581Z,79.11
2023-03-26T23:16:05.627Z,79.42
2023-03-26T23:16:10.801Z,79.32
2023-03-26T23:17:02.285Z,79.11
2023-03-26T23:18:02.366Z,78.59
2023-03-26T23:19:01.965Z,78.18
2023-03-26T23:20:02.224Z,78.08
2023-03-26T23:21:01.810Z,78.91
2023-03-26T23:22:02.194Z,79.87
2023-03-26T23:23:02.238Z,79.46
2023-03-26T23:24:01.892Z,79.25
2023-03-26T23:25:01.883Z,79.77
2023-03-26T23:26:02.242Z,79.66
2023-03-26T23:27:02.790Z,79.05
2023-03-26T23:28:02.915Z,78.88
2023-03-26T23:29:02.568Z,79.49
2023-03-26T23:30:02.954Z,79.60
2023-03-26T23:31:02.675Z,79.39
2023-03-26T23:32:02.711Z,79.49
2023-03-26T23:33:03.133Z,79.70
2023-03-26T23:34:02.575Z,79.91
2023-03-26T23:35:03.113Z,80.01
2023-03-26T23:36:02.941Z,79.70
2023-03-26T23:37:02.367Z,78.98
2023-03-26T23:38:02.021Z,79.53
2023-03-26T23:39:02.407Z,80.15
2023-03-26T23:40:01.948Z,80.46
2023-03-26T23:41:02.288Z,80.46
2023-03-26T23:42:02.797Z,80.36
2023-03-26T23:43:02.430Z,80.26
2023-03-26T23:44:02.289Z,80.46
2023-03-26T23:45:02.808Z,80.81
2023-03-26T23:46:02.726Z,81.43
2023-03-26T23:47:02.486Z,81.74
2023-03-26T23:48:02.773Z,81.64
2023-03-26T23:49:02.886Z,81.54
2023-03-26T23:50:02.827Z,81.02
2023-03-26T23:51:04.566Z,80.91
2023-03-26T23:52:02.229Z,80.91
2023-03-26T23:53:02.185Z,81.33
2023-03-26T23:54:02.077Z,81.84
2023-03-26T23:55:02.212Z,81.84
2023-03-26T23:56:02.282Z,82.05
2023-03-26T23:57:01.977Z,82.05
2023-03-26T23:58:02.043Z,82.15
2023-03-26T23:59:02.295Z,82.50
